FAKM

Kimberley Airport

Kimberley, South Africa
METAR FAKM 260530Z 35002KT CAVOK 15/08 Q1019
Observed Flight Rules
Apr-26 @ 05:30 UTC (29 minutes ago) Visual Flight Rules
Wind Visibility Clouds
350° at 2 knots 10,000+ meters
  • Clear skies
Temperatures Readings
Current 15°C / 59°F
Dewpoint 8°C / 46°F
Humidity 63%
Altimeter 30.09" Hg
Pressure 1019 hPa
Elevation 1192
METAR FAKM 260530Z 35002KT CAVOK 15/08 Q1019
Observed Flight Rules
Apr-26 @ 05:30 UTC
(29 minutes ago)
VFR
Wind Visibility
350° at 2 knots 10,000+ meters
Clouds
  • Clear skies
Temperature Dewpoint
15°C / 59°F 8°C / 46°F
Humidity Altimeter Pressure
63% 30.09" Hg 1019 hPa